Time;durP1;ratioP1;P1;durP2;ratioP2;P2;SDS_P1;SDS_P2;PMS_P1;PMS_P2;Temp;Humidity;BMP_temperature;BMP_pressure;BME280_temperature;BME280_humidity;BME280_pressure;Samples;Min_cycle;Max_cycle;Signal;HPM_P1;HPM_P2
2021/01/02 05:02:13;;;;;;;1999.90;999.90;;;5.00;99.90;;;;;;5081731;23;20690;-78
2021/01/02 05:04:45;;;;;;;1999.90;999.90;;;5.00;99.90;;;;;;4900140;29;20677;-77
2021/01/02 05:07:22;;;;;;;1999.90;999.90;;;5.00;99.90;;;;;;4900222;29;20227;-78
2021/01/02 05:09:49;;;;;;;1999.90;999.90;;;5.00;99.90;;;;;;4900176;29;20251;-78
2021/01/02 05:12:26;;;;;;;1999.90;999.90;;;5.00;99.90;;;;;;4900151;29;20227;-78
2021/01/02 05:14:58;;;;;;;1999.90;999.90;;;5.00;99.90;;;;;;4900554;29;20632;-76
2021/01/02 05:17:27;;;;;;;1999.90;999.90;;;5.00;99.90;;;;;;4899484;29;20218;-77
2021/01/02 05:20:05;;;;;;;1999.90;999.90;;;5.10;99.90;;;;;;4899263;29;20215;-78
2021/01/02 05:22:32;;;;;;;1999.90;999.90;;;5.10;99.90;;;;;;4899137;29;20231;-77
2021/01/02 05:25:08;;;;;;;1999.90;999.90;;;5.20;99.90;;;;;;4899498;29;20204;-76
2021/01/02 05:27:36;;;;;;;1999.90;999.90;;;5.00;99.90;;;;;;4899385;29;20568;-77
2021/01/02 05:30:20;;;;;;;1999.90;999.90;;;5.10;99.90;;;;;;4899180;29;20278;-77
2021/01/02 05:32:56;;;;;;;1999.90;999.90;;;5.20;99.90;;;;;;4895073;29;20204;-76
2021/01/02 05:35:24;;;;;;;1999.90;999.90;;;5.10;99.90;;;;;;4907000;29;20199;-77
2021/01/02 05:37:52;;;;;;;1999.90;999.90;;;5.20;99.90;;;;;;4898941;29;20208;-77
2021/01/02 05:40:36;;;;;;;1999.90;999.90;;;5.00;99.90;;;;;;4899046;29;20211;-77
2021/01/02 05:43:03;;;;;;;1999.90;999.90;;;5.00;99.90;;;;;;4898855;29;20211;-78
2021/01/02 05:45:30;;;;;;;1999.90;999.90;;;5.10;99.90;;;;;;4899108;29;20231;-79
2021/01/02 05:48:10;;;;;;;1999.90;999.90;;;5.00;99.90;;;;;;4898841;29;20207;-77
2021/01/02 05:50:51;;;;;;;1999.90;999.90;;;4.90;99.90;;;;;;4898688;29;20279;-78
2021/01/02 05:53:27;;;;;;;1999.90;999.90;;;5.00;99.90;;;;;;4898474;29;20260;-78
2021/01/02 05:56:08;;;;;;;1999.90;999.90;;;5.00;99.90;;;;;;4899096;29;20253;-77
2021/01/02 05:58:42;;;;;;;1999.90;999.90;;;5.10;99.90;;;;;;4898646;29;20211;-80
2021/01/02 06:01:11;;;;;;;1999.90;999.90;;;5.10;99.90;;;;;;4898709;29;20238;-77
2021/01/02 06:03:40;;;;;;;1999.90;999.90;;;5.00;99.90;;;;;;4898827;29;20203;-77
2021/01/02 06:06:09;;;;;;;1999.90;999.90;;;4.90;99.90;;;;;;4898542;29;20784;-79
2021/01/02 06:08:38;;;;;;;1999.90;999.90;;;4.90;99.90;;;;;;4898422;29;20255;-77
2021/01/02 06:11:08;;;;;;;1999.90;999.90;;;4.90;99.90;;;;;;4898534;29;20231;-79
2021/01/02 06:13:37;;;;;;;1999.90;999.90;;;4.90;99.90;;;;;;4898391;29;20676;-79
2021/01/02 06:16:06;;;;;;;1999.90;999.90;;;4.90;99.90;;;;;;4898087;29;20664;-78
2021/01/02 06:18:35;;;;;;;1999.90;999.90;;;5.00;99.90;;;;;;4897945;29;20216;-77
2021/01/02 06:21:06;;;;;;;1999.90;999.90;;;4.90;99.90;;;;;;4898189;29;20712;-78
2021/01/02 06:23:35;;;;;;;1999.90;999.90;;;4.90;99.90;;;;;;4898692;29;20215;-77
2021/01/02 06:26:04;;;;;;;1999.90;999.90;;;4.80;99.90;;;;;;4898226;29;20280;-79
2021/01/02 06:28:33;;;;;;;1999.90;999.90;;;4.70;99.90;;;;;;4897988;29;20759;-79
2021/01/02 06:31:06;;;;;;;1999.90;999.90;;;4.70;99.90;;;;;;4897700;29;20279;-76
2021/01/02 06:33:34;;;;;;;1999.90;999.90;;;4.70;99.90;;;;;;4897947;29;20456;-77
2021/01/02 06:36:03;;;;;;;1999.90;999.90;;;4.80;99.90;;;;;;4897702;29;20673;-79
2021/01/02 06:38:30;;;;;;;1999.90;999.90;;;4.70;99.90;;;;;;4897458;29;20747;-78
2021/01/02 06:40:58;;;;;;;1999.90;999.90;;;4.80;99.90;;;;;;4897738;29;20231;-78
2021/01/02 06:43:37;;;;;;;1999.90;999.90;;;4.80;99.90;;;;;;4897824;29;20668;-78
2021/01/02 06:46:04;;;;;;;1999.90;999.90;;;4.80;99.90;;;;;;4904716;29;20234;-79
2021/01/02 06:48:39;;;;;;;1999.90;999.90;;;4.90;99.90;;;;;;4905768;29;20270;-80
2021/01/02 06:51:30;;;;;;;1999.90;999.90;;;4.80;99.90;;;;;;4908203;29;20227;-82
2021/01/02 06:53:57;;;;;;;1999.90;999.90;;;4.90;99.90;;;;;;4904396;29;20211;-79
2021/01/02 06:56:33;;;;;;;1999.90;999.90;;;4.90;99.90;;;;;;4901786;29;20210;-77
2021/01/02 06:59:00;;;;;;;1999.90;999.90;;;4.70;99.90;;;;;;4903861;29;20211;-79
2021/01/02 07:01:43;;;;;;;1999.90;999.90;;;4.70;99.90;;;;;;4900598;29;20231;-79
2021/01/02 07:04:11;;;;;;;1999.90;999.90;;;4.60;99.90;;;;;;4898290;29;20212;-80
2021/01/02 07:06:40;;;;;;;1999.90;999.90;;;4.60;99.90;;;;;;4906323;29;20599;-80
2021/01/02 07:09:23;;;;;;;1999.90;999.90;;;4.70;99.90;;;;;;4909020;29;20215;-80
2021/01/02 07:11:51;;;;;;;1999.90;999.90;;;4.70;99.90;;;;;;4897595;29;20231;-80
2021/01/02 07:14:20;;;;;;;1999.90;999.90;;;4.50;99.90;;;;;;4898409;29;20279;-80
2021/01/02 07:16:50;;;;;;;1999.90;999.90;;;4.60;99.90;;;;;;4898607;29;20203;-80
2021/01/02 07:19:34;;;;;;;1999.90;999.90;;;4.70;99.90;;;;;;4899005;29;20211;-79
2021/01/02 07:22:05;;;;;;;1999.90;999.90;;;4.60;99.90;;;;;;4897164;29;20227;-80
2021/01/02 07:24:33;;;;;;;1999.90;999.90;;;4.60;99.90;;;;;;4902175;29;20211;-80
2021/01/02 07:27:02;;;;;;;1999.90;999.90;;;4.70;99.90;;;;;;4897492;29;20230;-80
2021/01/02 07:29:30;;;;;;;1999.90;999.90;;;4.60;99.90;;;;;;4897166;29;20208;-79
2021/01/02 07:32:07;;;;;;;1999.90;999.90;;;4.70;99.90;;;;;;4897238;29;20231;-77
2021/01/02 07:34:35;;;;;;;1999.90;999.90;;;5.40;99.90;;;;;;4898302;29;20215;-81
2021/01/02 07:37:05;;;;;;;1999.90;999.90;;;4.80;99.90;;;;;;4901651;29;20203;-80
2021/01/02 07:39:33;;;;;;;1999.90;999.90;;;4.80;99.90;;;;;;4897436;29;20346;-80
2021/01/02 07:42:09;;;;;;;1999.90;999.90;;;4.70;99.90;;;;;;4895069;29;20286;-76
2021/01/02 07:44:37;;;;;;;1999.90;999.90;;;4.70;99.90;;;;;;4895123;29;20238;-80
2021/01/02 07:47:05;;;;;;;1999.90;999.90;;;4.60;99.90;;;;;;4897912;29;20235;-79
2021/01/02 07:49:32;;;;;;;1999.90;999.90;;;4.70;99.90;;;;;;4899258;29;20705;-79
2021/01/02 07:51:59;;;;;;;1999.90;999.90;;;4.80;99.90;;;;;;4895786;29;20245;-77
2021/01/02 07:54:35;;;;;;;1999.90;999.90;;;4.80;99.90;;;;;;4896092;29;20207;-79
2021/01/02 07:57:05;;;;;;;1999.90;999.90;;;4.90;99.90;;;;;;4899991;29;20211;-79
2021/01/02 07:59:33;;;;;;;1999.90;999.90;;;4.90;99.90;;;;;;4901306;29;20215;-78
2021/01/02 08:02:03;;;;;;;1999.90;999.90;;;4.90;99.90;;;;;;4900957;29;20246;-78
2021/01/02 08:04:31;;;;;;;1999.90;999.90;;;5.00;99.90;;;;;;4900970;29;20267;-80
2021/01/02 08:06:59;;;;;;;1999.90;999.90;;;4.80;99.90;;;;;;4901980;29;20316;-79
2021/01/02 08:09:28;;;;;;;1999.90;999.90;;;4.90;99.90;;;;;;4902052;29;20213;-80
2021/01/02 08:11:59;;;;;;;1999.90;999.90;;;4.90;99.90;;;;;;4902081;29;20231;-81
2021/01/02 08:14:28;;;;;;;1999.90;999.90;;;4.90;99.90;;;;;;4900929;29;20206;-78
2021/01/02 08:16:57;;;;;;;1999.90;999.90;;;4.80;99.90;;;;;;4896929;29;20290;-79
2021/01/02 08:19:25;;;;;;;1999.90;999.90;;;4.90;99.90;;;;;;4898533;29;20303;-78
2021/01/02 08:21:52;;;;;;;1999.90;999.90;;;4.90;99.90;;;;;;4892994;29;20639;-78
2021/01/02 08:24:19;;;;;;;1999.90;999.90;;;5.00;99.90;;;;;;4900030;29;20203;-76
2021/01/02 08:26:47;;;;;;;1999.90;999.90;;;5.00;99.90;;;;;;4900168;29;20227;-76
2021/01/02 08:29:15;;;;;;;1999.90;999.90;;;5.00;99.90;;;;;;4900873;29;20580;-79
2021/01/02 08:31:48;;;;;;;1999.90;999.90;;;5.00;99.90;;;;;;4900748;29;20804;-78
2021/01/02 08:34:31;;;;;;;1999.90;999.90;;;5.00;99.90;;;;;;4902280;29;20207;-79
2021/01/02 08:37:03;;;;;;;1999.90;999.90;;;5.00;99.90;;;;;;4900438;29;20633;-79
2021/01/02 08:39:30;;;;;;;1999.90;999.90;;;5.00;99.90;;;;;;4901682;29;20204;-78
2021/01/02 08:41:59;;;;;;;1999.90;999.90;;;5.00;99.90;;;;;;4904511;29;20263;-79
2021/01/02 08:44:32;;;;;;;1999.90;999.90;;;5.10;99.90;;;;;;4903470;29;20207;-79
2021/01/02 08:46:59;;;;;;;1999.90;999.90;;;5.00;99.90;;;;;;4902429;29;20231;-80
2021/01/02 08:49:28;;;;;;;1999.90;999.90;;;5.00;99.90;;;;;;4902954;29;20617;-79
2021/01/02 08:52:23;;;;;;;1999.90;999.90;;;5.10;99.90;;;;;;4904430;29;20597;-79
2021/01/02 08:54:55;;;;;;;1999.90;999.90;;;5.10;99.90;;;;;;4903737;29;20203;-80
2021/01/02 08:57:24;;;;;;;1999.90;999.90;;;4.90;99.90;;;;;;4901223;29;20259;-78
2021/01/02 08:59:52;;;;;;;1999.90;999.90;;;5.00;99.90;;;;;;4899834;29;20215;-76
2021/01/02 09:02:19;;;;;;;1999.90;999.90;;;5.00;99.90;;;;;;4899861;29;20611;-78
2021/01/02 09:05:02;;;;;;;1999.90;999.90;;;5.00;99.90;;;;;;4899291;29;20211;-79
2021/01/02 09:07:29;;;;;;;1999.90;999.90;;;5.20;99.90;;;;;;4899000;29;20704;-75
2021/01/02 09:10:11;;;;;;;1999.90;999.90;;;5.30;99.90;;;;;;4899541;29;20215;-77
2021/01/02 09:12:38;;;;;;;1999.90;999.90;;;5.40;99.90;;;;;;4899632;29;20215;-78
2021/01/02 09:15:08;;;;;;;1999.90;999.90;;;5.40;99.90;;;;;;4899578;29;20716;-79
2021/01/02 09:17:46;;;;;;;1999.90;999.90;;;5.40;99.90;;;;;;4900312;29;20207;-79
2021/01/02 09:20:18;;;;;;;1999.90;999.90;;;5.40;99.90;;;;;;4902854;29;20211;-81
2021/01/02 09:22:52;;;;;;;1999.90;999.90;;;5.30;99.90;;;;;;4900041;29;20560;-80
2021/01/02 09:25:19;;;;;;;1999.90;999.90;;;5.30;99.90;;;;;;4900590;29;20228;-80
2021/01/02 09:27:46;;;;;;;1999.90;999.90;;;5.20;99.90;;;;;;4899086;29;20227;-80
2021/01/02 09:30:15;;;;;;;1999.90;999.90;;;5.00;99.90;;;;;;4906394;29;20227;-79
2021/01/02 09:32:42;;;;;;;1999.90;999.90;;;5.00;99.90;;;;;;4901013;29;20267;-79
2021/01/02 09:35:10;;;;;;;1999.90;999.90;;;4.90;99.90;;;;;;4899443;29;20208;-79
2021/01/02 09:37:37;;;;;;;1999.90;999.90;;;4.80;99.90;;;;;;4899273;29;20211;-79
2021/01/02 09:40:13;;;;;;;1999.90;999.90;;;4.70;99.90;;;;;;4899150;29;20254;-78
2021/01/02 09:42:40;;;;;;;1999.90;999.90;;;4.70;99.90;;;;;;4898950;29;20211;-78
2021/01/02 09:45:08;;;;;;;1999.90;999.90;;;4.70;99.90;;;;;;4898987;29;20219;-76
2021/01/02 09:47:35;;;;;;;1999.90;999.90;;;4.80;99.90;;;;;;4898570;29;20705;-78
2021/01/02 09:50:02;;;;;;;1999.90;999.90;;;4.80;99.90;;;;;;4898696;29;20287;-78
2021/01/02 09:52:29;;;;;;;1999.90;999.90;;;4.80;99.90;;;;;;4899469;29;20791;-80
2021/01/02 09:54:56;;;;;;;1999.90;999.90;;;4.90;99.90;;;;;;4899582;29;20263;-81
2021/01/02 09:57:24;;;;;;;1999.90;999.90;;;4.90;99.90;;;;;;4899753;29;20214;-78
2021/01/02 09:59:52;;;;;;;1999.90;999.90;;;5.00;99.90;;;;;;4898244;29;20204;-79
2021/01/02 10:02:19;;;;;;;1999.90;999.90;;;4.90;99.90;;;;;;4906943;29;20242;-82
2021/01/02 10:04:48;;;;;;;1999.90;999.90;;;4.90;99.90;;;;;;4903711;29;20252;-79
2021/01/02 10:07:17;;;;;;;1999.90;999.90;;;5.10;99.90;;;;;;4899805;29;20212;-79
2021/01/02 10:09:46;;;;;;;1999.90;999.90;;;5.10;99.90;;;;;;4898968;29;20207;-79
2021/01/02 10:12:14;;;;;;;1999.90;999.90;;;5.10;99.90;;;;;;4899183;29;20302;-79
2021/01/02 10:14:43;;;;;;;1999.90;999.90;;;5.20;99.90;;;;;;4899907;29;20215;-80
2021/01/02 10:17:11;;;;;;;1999.90;999.90;;;5.20;99.90;;;;;;4899565;29;20207;-80
2021/01/02 10:19:41;;;;;;;1999.90;999.90;;;5.20;99.90;;;;;;4899065;29;20259;-79
2021/01/02 10:22:08;;;;;;;1999.90;999.90;;;5.10;99.90;;;;;;4899275;29;20236;-80
2021/01/02 10:24:35;;;;;;;1999.90;999.90;;;5.10;99.90;;;;;;4900167;29;20215;-78
2021/01/02 10:27:02;;;;;;;1999.90;999.90;;;4.90;99.90;;;;;;4899577;29;20234;-79
2021/01/02 10:29:29;;;;;;;1999.90;999.90;;;5.00;99.90;;;;;;4899493;29;20687;-78
2021/01/02 10:32:01;;;;;;;1999.90;999.90;;;5.10;99.90;;;;;;4900169;29;20243;-80
2021/01/02 10:34:28;;;;;;;1999.90;999.90;;;5.20;99.90;;;;;;4899615;29;20267;-80
2021/01/02 10:36:55;;;;;;;1999.90;999.90;;;5.30;99.90;;;;;;4900370;29;20208;-78
2021/01/02 10:39:23;;;;;;;1999.90;999.90;;;5.30;99.90;;;;;;4897739;29;20707;-75
2021/01/02 10:41:50;;;;;;;1999.90;999.90;;;5.30;99.90;;;;;;4897791;29;20231;-75
2021/01/02 10:44:19;;;;;;;1999.90;999.90;;;5.20;99.90;;;;;;4897757;29;20215;-74
2021/01/02 10:46:47;;;;;;;1999.90;999.90;;;5.30;99.90;;;;;;4896173;29;20712;-73
2021/01/02 10:49:16;;;;;;;1999.90;999.90;;;5.40;99.90;;;;;;4896820;29;20204;-76
2021/01/02 10:51:45;;;;;;;1999.90;999.90;;;5.50;99.90;;;;;;4898534;29;20287;-78
2021/01/02 10:54:13;;;;;;;1999.90;999.90;;;5.60;99.90;;;;;;4897631;29;20643;-76
2021/01/02 10:56:44;;;;;;;1999.90;999.90;;;5.60;99.90;;;;;;4897180;29;20298;-77
2021/01/02 10:59:12;;;;;;;1999.90;999.90;;;5.50;99.90;;;;;;4915276;29;20250;-76
2021/01/02 11:01:43;;;;;;;1999.90;999.90;;;5.70;99.90;;;;;;4916234;29;20230;-77
2021/01/02 11:04:10;;;;;;;1999.90;999.90;;;5.80;99.90;;;;;;4917065;29;20206;-77
2021/01/02 11:06:40;;;;;;;1999.90;999.90;;;5.90;99.90;;;;;;4918047;29;20253;-77
2021/01/02 11:09:10;;;;;;;1999.90;999.90;;;5.80;99.90;;;;;;4917376;29;20623;-78
2021/01/02 11:11:37;;;;;;;1999.90;999.90;;;5.90;99.90;;;;;;4916504;29;20227;-79
2021/01/02 11:14:05;;;;;;;1999.90;999.90;;;6.10;99.90;;;;;;4916203;29;20664;-78
2021/01/02 11:16:32;;;;;;;1999.90;999.90;;;6.20;99.90;;;;;;4916377;29;20677;-77
2021/01/02 11:18:59;;;;;;;1999.90;999.90;;;6.30;99.90;;;;;;4907890;29;20875;-77
2021/01/02 11:21:26;;;;;;;1999.90;999.90;;;6.30;99.90;;;;;;4896924;29;20696;-76
2021/01/02 11:23:58;;;;;;;1999.90;999.90;;;6.40;99.90;;;;;;4897016;29;20239;-76
2021/01/02 11:26:25;;;;;;;1999.90;999.90;;;6.50;99.90;;;;;;4896407;29;20593;-78
2021/01/02 11:28:52;;;;;;;1999.90;999.90;;;6.60;99.90;;;;;;4896032;29;20207;-77
2021/01/02 11:31:28;;;;;;;1999.90;999.90;;;6.60;99.90;;;;;;4896816;29;20235;-77
2021/01/02 11:33:55;;;;;;;1999.90;999.90;;;6.70;99.90;;;;;;4897349;29;20267;-77
2021/01/02 11:36:23;;;;;;;1999.90;999.90;;;6.80;99.90;;;;;;4897935;29;20214;-78
2021/01/02 11:38:50;;;;;;;1999.90;999.90;;;6.80;99.90;;;;;;4897228;29;20554;-76
2021/01/02 11:41:20;;;;;;;1999.90;999.90;;;6.60;99.90;;;;;;4897161;29;20644;-76
2021/01/02 11:43:47;;;;;;;1999.90;999.90;;;6.60;99.90;;;;;;4894604;29;20558;-77
2021/01/02 11:46:14;;;;;;;1999.90;999.90;;;6.70;99.90;;;;;;4903126;29;20207;-77
2021/01/02 11:48:41;;;;;;;1999.90;999.90;;;6.80;99.90;;;;;;4898836;29;20628;-78
2021/01/02 11:51:14;;;;;;;1999.90;999.90;;;6.80;99.90;;;;;;4900748;29;20294;-78
2021/01/02 11:53:43;;;;;;;1999.90;999.90;;;6.70;99.90;;;;;;4898477;29;20258;-78
2021/01/02 11:56:12;;;;;;;1999.90;999.90;;;6.30;99.90;;;;;;4898854;29;20661;-78
2021/01/02 11:58:39;;;;;;;1999.90;999.90;;;6.10;99.90;;;;;;4909269;29;20207;-80
2021/01/02 12:01:06;;;;;;;1999.90;999.90;;;5.90;99.90;;;;;;4913533;29;20266;-79
2021/01/02 12:03:33;;;;;;;1999.90;999.90;;;6.10;99.90;;;;;;4913786;29;20203;-78
2021/01/02 12:06:00;;;;;;;1999.90;999.90;;;6.30;99.90;;;;;;4911071;29;20207;-79
2021/01/02 12:08:27;;;;;;;1999.90;999.90;;;6.30;99.90;;;;;;4909357;29;20195;-79
2021/01/02 12:10:54;;;;;;;1999.90;999.90;;;6.40;99.90;;;;;;4912165;29;20222;-78
2021/01/02 12:13:21;;;;;;;1999.90;999.90;;;6.40;99.90;;;;;;4912940;29;20203;-80
2021/01/02 12:15:50;;;;;;;1999.90;999.90;;;6.50;99.90;;;;;;4910206;29;20236;-79
2021/01/02 12:18:17;;;;;;;1999.90;999.90;;;6.40;99.90;;;;;;4906361;29;20206;-79
2021/01/02 12:20:46;;;;;;;1999.90;999.90;;;6.30;99.90;;;;;;4908130;29;20223;-79
2021/01/02 12:23:13;;;;;;;1999.90;999.90;;;6.30;99.90;;;;;;4908119;29;20199;-79
2021/01/02 12:25:40;;;;;;;1999.90;999.90;;;6.40;99.90;;;;;;4907925;29;20299;-79
2021/01/02 12:28:07;;;;;;;1999.90;999.90;;;6.30;99.90;;;;;;4907677;29;20223;-79
2021/01/02 12:30:34;;;;;;;1999.90;999.90;;;6.30;99.90;;;;;;4909007;29;20251;-78
2021/01/02 12:33:03;;;;;;;1999.90;999.90;;;6.20;99.90;;;;;;4910295;29;20207;-79
2021/01/02 12:35:30;;;;;;;1999.90;999.90;;;6.20;99.90;;;;;;4912318;29;20571;-80
2021/01/02 12:37:57;;;;;;;1999.90;999.90;;;6.20;99.90;;;;;;4898776;29;20215;-79
2021/01/02 12:40:24;;;;;;;1999.90;999.90;;;6.40;99.90;;;;;;4895413;29;20207;-78
2021/01/02 12:42:51;;;;;;;1999.90;999.90;;;6.30;99.90;;;;;;4897261;29;20228;-78
2021/01/02 12:45:18;;;;;;;1999.90;999.90;;;6.40;99.90;;;;;;4901009;29;20208;-80
2021/01/02 12:47:45;;;;;;;1999.90;999.90;;;6.40;99.90;;;;;;4900962;29;20215;-79
2021/01/02 12:50:13;;;;;;;1999.90;999.90;;;6.40;99.90;;;;;;4900817;29;20218;-79
2021/01/02 12:52:40;;;;;;;1999.90;999.90;;;6.60;99.90;;;;;;4901784;29;20203;-79
2021/01/02 12:55:08;;;;;;;1999.90;999.90;;;6.70;99.90;;;;;;4900508;29;20207;-79
2021/01/02 12:57:35;;;;;;;1999.90;999.90;;;6.60;99.90;;;;;;4906085;29;20203;-79
2021/01/02 13:00:04;;;;;;;1999.90;999.90;;;6.60;99.90;;;;;;4912203;29;20439;-79
2021/01/02 13:02:31;;;;;;;1999.90;999.90;;;6.60;99.90;;;;;;4903779;29;20573;-79
2021/01/02 13:04:58;;;;;;;1999.90;999.90;;;6.50;99.90;;;;;;4904977;29;20271;-79
2021/01/02 13:07:26;;;;;;;1999.90;999.90;;;6.40;99.90;;;;;;4906797;29;20220;-79
2021/01/02 13:09:53;;;;;;;1999.90;999.90;;;6.50;99.90;;;;;;4900340;29;20218;-75
2021/01/02 13:12:20;;;;;;;1999.90;999.90;;;6.40;99.90;;;;;;4898815;29;20220;-76
2021/01/02 13:14:47;;;;;;;1999.90;999.90;;;6.40;99.90;;;;;;4898147;29;20260;-78
2021/01/02 13:17:15;;;;;;;1999.90;999.90;;;6.40;99.90;;;;;;4901894;29;20255;-78
2021/01/02 13:19:46;;;;;;;1999.90;999.90;;;6.50;99.90;;;;;;4903187;29;20689;-77
2021/01/02 13:22:13;;;;;;;1999.90;999.90;;;6.60;99.90;;;;;;4918016;29;20238;-77
2021/01/02 13:24:44;;;;;;;1999.90;999.90;;;6.60;99.90;;;;;;4917403;29;20203;-78
2021/01/02 13:27:11;;;;;;;1999.90;999.90;;;6.60;99.90;;;;;;4925322;29;20230;-78
2021/01/02 13:29:42;;;;;;;1999.90;999.90;;;6.50;99.90;;;;;;4925355;29;20203;-79
2021/01/02 13:32:09;;;;;;;1999.90;999.90;;;6.50;99.90;;;;;;4925770;29;20748;-78
2021/01/02 13:34:39;;;;;;;1999.90;999.90;;;6.50;99.90;;;;;;4924955;29;20282;-78
2021/01/02 13:37:07;;;;;;;1999.90;999.90;;;6.60;99.90;;;;;;4924989;29;20207;-78
2021/01/02 13:39:35;;;;;;;1999.90;999.90;;;6.70;99.90;;;;;;4925570;29;20212;-78
2021/01/02 13:42:11;;;;;;;1999.90;999.90;;;6.60;99.90;;;;;;4926211;29;20226;-79
2021/01/02 13:44:38;;;;;;;1999.90;999.90;;;6.60;99.90;;;;;;4925028;29;20230;-77
2021/01/02 13:47:08;;;;;;;1999.90;999.90;;;6.70;99.90;;;;;;4911414;29;20223;-81
2021/01/02 13:49:35;;;;;;;1999.90;999.90;;;6.80;99.90;;;;;;4905504;29;20208;-79
2021/01/02 13:52:02;;;;;;;1999.90;999.90;;;6.80;99.90;;;;;;4907104;29;20231;-77
2021/01/02 13:54:29;;;;;;;1999.90;999.90;;;7.00;99.90;;;;;;4905178;29;20207;-78
2021/01/02 13:56:56;;;;;;;1999.90;999.90;;;7.00;99.90;;;;;;4907394;29;20263;-78
2021/01/02 13:59:25;;;;;;;1999.90;999.90;;;7.00;99.90;;;;;;4907742;29;20635;-78
2021/01/02 14:01:57;;;;;;;1999.90;999.90;;;7.00;99.90;;;;;;4907490;29;20324;-79
2021/01/02 14:04:24;;;;;;;1999.90;999.90;;;6.80;99.90;;;;;;4907226;29;20211;-78
2021/01/02 14:06:53;;;;;;;1999.90;999.90;;;6.30;99.90;;;;;;4904743;29;20626;-79
2021/01/02 14:09:20;;;;;;;1999.90;999.90;;;6.20;99.90;;;;;;4898944;29;20207;-76
2021/01/02 14:11:48;;;;;;;1999.90;999.90;;;6.10;99.90;;;;;;4899267;29;20223;-76
2021/01/02 14:14:16;;;;;;;1999.90;999.90;;;6.10;99.90;;;;;;4909699;29;20231;-79
2021/01/02 14:16:50;;;;;;;1999.90;999.90;;;6.10;99.90;;;;;;4910431;29;20208;-76
2021/01/02 14:19:18;;;;;;;1999.90;999.90;;;6.20;99.90;;;;;;4906626;29;20722;-76
2021/01/02 14:21:45;;;;;;;1999.90;999.90;;;6.30;99.90;;;;;;4905677;29;20279;-76
2021/01/02 14:24:13;;;;;;;1999.90;999.90;;;6.30;99.90;;;;;;4905413;29;20211;-75
2021/01/02 14:26:40;;;;;;;1999.90;999.90;;;6.40;99.90;;;;;;4904695;29;20259;-77
2021/01/02 14:29:07;;;;;;;1999.90;999.90;;;6.50;99.90;;;;;;4898745;29;20211;-76
2021/01/02 14:31:37;;;;;;;1999.90;999.90;;;6.50;99.90;;;;;;4899580;29;20720;-77
2021/01/02 14:34:06;;;;;;;1999.90;999.90;;;6.40;99.90;;;;;;4903396;29;20239;-78
2021/01/02 14:36:33;;;;;;;1999.90;999.90;;;6.50;99.90;;;;;;4899451;29;20353;-77
2021/01/02 14:39:00;;;;;;;1999.90;999.90;;;6.50;99.90;;;;;;4896204;29;20233;-77
2021/01/02 14:41:28;;;;;;;1999.90;999.90;;;6.30;99.90;;;;;;4897047;29;20282;-78
2021/01/02 14:43:56;;;;;;;1999.90;999.90;;;6.20;99.90;;;;;;4897249;29;20207;-76
2021/01/02 14:46:30;;;;;;;1999.90;999.90;;;6.30;99.90;;;;;;4897890;29;20287;-76
2021/01/02 14:48:57;;;;;;;1999.90;999.90;;;6.30;99.90;;;;;;4897882;29;20230;-75
2021/01/02 14:51:42;;;;;;;1999.90;999.90;;;6.30;99.90;;;;;;4898645;29;20582;-77
2021/01/02 14:54:10;;;;;;;1999.90;999.90;;;6.40;99.90;;;;;;4898510;29;20218;-75
2021/01/02 14:56:37;;;;;;;1999.90;999.90;;;6.40;99.90;;;;;;4898297;29;20215;-79
2021/01/02 14:59:04;;;;;;;1999.90;999.90;;;6.40;99.90;;;;;;4898245;29;20633;-77
2021/01/02 15:01:34;;;;;;;1999.90;999.90;;;6.40;99.90;;;;;;4897572;29;20752;-77
2021/01/02 15:04:01;;;;;;;1999.90;999.90;;;6.40;99.90;;;;;;4897997;29;20588;-76
2021/01/02 15:06:28;;;;;;;1999.90;999.90;;;6.50;99.90;;;;;;4897916;29;20264;-75
2021/01/02 15:08:56;;;;;;;1999.90;999.90;;;6.40;99.90;;;;;;4897951;29;20310;-77
2021/01/02 15:11:25;;;;;;;1999.90;999.90;;;6.50;99.90;;;;;;4898374;29;20259;-77
2021/01/02 15:13:53;;;;;;;1999.90;999.90;;;6.50;99.90;;;;;;4900341;29;20211;-78
2021/01/02 15:16:22;;;;;;;1999.90;999.90;;;6.40;99.90;;;;;;4899787;29;20207;-80
2021/01/02 15:18:49;;;;;;;1999.90;999.90;;;6.40;99.90;;;;;;4906561;29;20206;-79
2021/01/02 15:21:20;;;;;;;1999.90;999.90;;;6.40;99.90;;;;;;4920698;29;20229;-79
2021/01/02 15:23:49;;;;;;;1999.90;999.90;;;6.30;99.90;;;;;;4918235;29;20211;-78
2021/01/02 15:26:20;;;;;;;1999.90;999.90;;;6.20;99.90;;;;;;4916609;29;20652;-78
2021/01/02 15:28:47;;;;;;;1999.90;999.90;;;6.20;99.90;;;;;;4917440;29;20239;-79
2021/01/02 15:31:14;;;;;;;1999.90;999.90;;;6.20;99.90;;;;;;4916498;29;20227;-76
2021/01/02 15:33:41;;;;;;;1999.90;999.90;;;6.20;99.90;;;;;;4915823;29;20206;-79
2021/01/02 15:36:08;;;;;;;1999.90;999.90;;;6.20;99.90;;;;;;4917402;29;20672;-79
2021/01/02 15:38:35;;;;;;;1999.90;999.90;;;6.20;99.90;;;;;;4916977;29;20210;-77
2021/01/02 15:41:03;;;;;;;1999.90;999.90;;;6.00;99.90;;;;;;4917068;29;20267;-78
2021/01/02 15:43:30;;;;;;;1999.90;999.90;;;6.00;99.90;;;;;;4882780;29;20203;-77
2021/01/02 15:45:59;;;;;;;1999.90;999.90;;;6.10;99.90;;;;;;4897835;29;20725;-78
2021/01/02 15:48:27;;;;;;;1999.90;999.90;;;6.10;99.90;;;;;;4898477;29;20227;-77
2021/01/02 15:50:54;;;;;;;1999.90;999.90;;;6.10;99.90;;;;;;4897568;29;20584;-78
2021/01/02 15:53:21;;;;;;;1999.90;999.90;;;6.20;99.90;;;;;;4897782;29;20199;-77
2021/01/02 15:55:49;;;;;;;1999.90;999.90;;;6.10;99.90;;;;;;4897916;29;20203;-77
2021/01/02 15:58:16;;;;;;;1999.90;999.90;;;6.10;99.90;;;;;;4897090;29;20203;-78
2021/01/02 16:00:44;;;;;;;1999.90;999.90;;;6.00;99.90;;;;;;4898445;29;20231;-79
2021/01/02 16:03:11;;;;;;;1999.90;999.90;;;6.00;99.90;;;;;;4897994;29;20203;-79
2021/01/02 16:05:40;;;;;;;1999.90;999.90;;;6.00;99.90;;;;;;4900604;29;20199;-78
2021/01/02 16:08:08;;;;;;;1999.90;999.90;;;6.00;99.90;;;;;;4898154;29;20677;-75
2021/01/02 16:10:35;;;;;;;1999.90;999.90;;;6.00;99.90;;;;;;4898272;29;20223;-77
2021/01/02 16:13:04;;;;;;;1999.90;999.90;;;5.90;99.90;;;;;;4898348;29;20210;-79
2021/01/02 16:15:31;;;;;;;1999.90;999.90;;;5.90;99.90;;;;;;4898261;29;20625;-80
2021/01/02 16:17:59;;;;;;;1999.90;999.90;;;5.90;99.90;;;;;;4902280;29;20199;-79
2021/01/02 16:20:26;;;;;;;1999.90;999.90;;;5.90;99.90;;;;;;4904200;29;20207;-76
2021/01/02 16:22:53;;;;;;;1999.90;999.90;;;5.90;99.90;;;;;;4904136;29;20958;-78
2021/01/02 16:25:20;;;;;;;1999.90;999.90;;;5.90;99.90;;;;;;4903966;29;20208;-77
2021/01/02 16:27:46;;;;;;;1999.90;999.90;;;5.90;99.90;;;;;;4902868;29;20298;-77
2021/01/02 16:30:14;;;;;;;1999.90;999.90;;;5.80;99.90;;;;;;4902694;29;20632;-79
2021/01/02 16:32:41;;;;;;;1999.90;999.90;;;5.80;99.90;;;;;;4903422;29;20200;-78
2021/01/02 16:35:10;;;;;;;1999.90;999.90;;;5.70;99.90;;;;;;4902889;29;20203;-76
2021/01/02 16:37:37;;;;;;;1999.90;999.90;;;5.60;99.90;;;;;;4902756;29;20252;-78
2021/01/02 16:40:05;;;;;;;1999.90;999.90;;;5.60;99.90;;;;;;4904047;29;20633;-79
2021/01/02 16:42:33;;;;;;;1999.90;999.90;;;5.70;99.90;;;;;;4901338;29;20248;-79
2021/01/02 16:45:04;;;;;;;1999.90;999.90;;;5.80;99.90;;;;;;4905202;29;20210;-81
2021/01/02 16:47:31;;;;;;;1999.90;999.90;;;5.80;99.90;;;;;;4902982;29;20219;-79
2021/01/02 16:49:58;;;;;;;1999.90;999.90;;;5.80;99.90;;;;;;4903472;29;20255;-78
2021/01/02 16:52:28;;;;;;;1999.90;999.90;;;5.80;99.90;;;;;;4902636;29;20644;-79
2021/01/02 16:55:01;;;;;;;1999.90;999.90;;;5.80;99.90;;;;;;4902490;29;20191;-79
2021/01/02 16:57:28;;;;;;;1999.90;999.90;;;5.80;99.90;;;;;;4905603;29;20199;-81
2021/01/02 16:59:55;;;;;;;1999.90;999.90;;;5.70;99.90;;;;;;4905457;29;20208;-81
2021/01/02 17:02:22;;;;;;;1999.90;999.90;;;5.60;99.90;;;;;;4905213;29;20238;-81
2021/01/02 17:04:49;;;;;;;1999.90;999.90;;;5.60;99.90;;;;;;4906499;29;20232;-80
2021/01/02 17:07:17;;;;;;;1999.90;999.90;;;5.50;99.90;;;;;;4905988;29;20223;-82
2021/01/02 17:09:45;;;;;;;1999.90;999.90;;;5.40;99.90;;;;;;4906626;29;20211;-80
2021/01/02 17:12:13;;;;;;;1999.90;999.90;;;5.40;99.90;;;;;;4885655;29;20232;-81
2021/01/02 17:14:41;;;;;;;1999.90;999.90;;;5.20;99.90;;;;;;4887167;29;20212;-81
2021/01/02 17:17:08;;;;;;;1999.90;999.90;;;5.20;99.90;;;;;;4886622;29;20212;-79
2021/01/02 17:19:35;;;;;;;1999.90;999.90;;;5.30;99.90;;;;;;4903141;29;20210;-79